sensor_id;sensor_type;location;lat;lon;timestamp;P1;durP1;ratioP1;P2;durP2;ratioP2
10705;SDS011;5404;42.656;23.336;2023-08-31T00:00:05;9.50;;;2.60;;
10705;SDS011;5404;42.656;23.336;2023-08-31T00:02:35;12.77;;;3.65;;
10705;SDS011;5404;42.656;23.336;2023-08-31T00:05:01;8.25;;;2.83;;
10705;SDS011;5404;42.656;23.336;2023-08-31T00:07:28;7.88;;;3.15;;
10705;SDS011;5404;42.656;23.336;2023-08-31T00:09:54;5.45;;;2.20;;
10705;SDS011;5404;42.656;23.336;2023-08-31T00:12:20;10.27;;;3.55;;
10705;SDS011;5404;42.656;23.336;2023-08-31T00:14:47;6.63;;;2.80;;
10705;SDS011;5404;42.656;23.336;2023-08-31T00:17:14;6.70;;;2.80;;
10705;SDS011;5404;42.656;23.336;2023-08-31T00:19:40;6.20;;;2.38;;
10705;SDS011;5404;42.656;23.336;2023-08-31T00:22:05;11.25;;;2.75;;
10705;SDS011;5404;42.656;23.336;2023-08-31T00:24:31;8.95;;;3.08;;
10705;SDS011;5404;42.656;23.336;2023-08-31T00:26:58;7.10;;;2.47;;
10705;SDS011;5404;42.656;23.336;2023-08-31T00:29:23;8.50;;;2.78;;
10705;SDS011;5404;42.656;23.336;2023-08-31T00:31:50;14.07;;;3.15;;
10705;SDS011;5404;42.656;23.336;2023-08-31T00:34:18;6.30;;;2.55;;
10705;SDS011;5404;42.656;23.336;2023-08-31T00:36:44;9.45;;;2.63;;
10705;SDS011;5404;42.656;23.336;2023-08-31T00:39:09;5.22;;;2.35;;
10705;SDS011;5404;42.656;23.336;2023-08-31T00:41:36;8.23;;;3.05;;
10705;SDS011;5404;42.656;23.336;2023-08-31T00:44:02;10.65;;;2.40;;
10705;SDS011;5404;42.656;23.336;2023-08-31T00:46:33;8.70;;;2.72;;
10705;SDS011;5404;42.656;23.336;2023-08-31T00:48:59;7.18;;;3.13;;
10705;SDS011;5404;42.656;23.336;2023-08-31T00:51:25;10.50;;;2.90;;
10705;SDS011;5404;42.656;23.336;2023-08-31T00:53:51;9.32;;;3.10;;
10705;SDS011;5404;42.656;23.336;2023-08-31T00:56:21;5.75;;;2.63;;
10705;SDS011;5404;42.656;23.336;2023-08-31T00:58:46;6.30;;;2.38;;
10705;SDS011;5404;42.656;23.336;2023-08-31T01:12:05;8.80;;;2.63;;
10705;SDS011;5404;42.656;23.336;2023-08-31T01:14:56;9.15;;;2.60;;
10705;SDS011;5404;42.656;23.336;2023-08-31T01:17:33;9.57;;;3.10;;
10705;SDS011;5404;42.656;23.336;2023-08-31T01:20:07;10.35;;;2.78;;
10705;SDS011;5404;42.656;23.336;2023-08-31T01:25:40;11.27;;;2.83;;
10705;SDS011;5404;42.656;23.336;2023-08-31T01:28:08;8.65;;;2.67;;
10705;SDS011;5404;42.656;23.336;2023-08-31T01:30:35;8.88;;;3.08;;
10705;SDS011;5404;42.656;23.336;2023-08-31T01:33:01;6.97;;;2.50;;
10705;SDS011;5404;42.656;23.336;2023-08-31T01:35:27;7.22;;;2.58;;
10705;SDS011;5404;42.656;23.336;2023-08-31T01:37:58;14.25;;;2.67;;
10705;SDS011;5404;42.656;23.336;2023-08-31T01:42:52;8.57;;;2.17;;
10705;SDS011;5404;42.656;23.336;2023-08-31T01:45:19;6.28;;;2.90;;
10705;SDS011;5404;42.656;23.336;2023-08-31T01:47:46;12.00;;;3.22;;
10705;SDS011;5404;42.656;23.336;2023-08-31T01:50:12;5.85;;;2.60;;
10705;SDS011;5404;42.656;23.336;2023-08-31T01:52:37;6.55;;;2.70;;
10705;SDS011;5404;42.656;23.336;2023-08-31T01:55:03;11.82;;;2.85;;
10705;SDS011;5404;42.656;23.336;2023-08-31T01:57:29;7.72;;;2.50;;
10705;SDS011;5404;42.656;23.336;2023-08-31T01:59:54;6.72;;;2.33;;
10705;SDS011;5404;42.656;23.336;2023-08-31T02:02:20;7.22;;;2.60;;
10705;SDS011;5404;42.656;23.336;2023-08-31T02:04:45;6.13;;;2.65;;
10705;SDS011;5404;42.656;23.336;2023-08-31T02:07:11;7.63;;;3.00;;
10705;SDS011;5404;42.656;23.336;2023-08-31T02:09:36;10.38;;;2.92;;
10705;SDS011;5404;42.656;23.336;2023-08-31T02:12:02;13.88;;;2.55;;
10705;SDS011;5404;42.656;23.336;2023-08-31T02:14:29;8.93;;;2.78;;
10705;SDS011;5404;42.656;23.336;2023-08-31T02:16:55;7.28;;;2.67;;
10705;SDS011;5404;42.656;23.336;2023-08-31T02:19:20;7.97;;;2.45;;
10705;SDS011;5404;42.656;23.336;2023-08-31T02:21:46;5.15;;;2.35;;
10705;SDS011;5404;42.656;23.336;2023-08-31T02:24:11;9.95;;;2.85;;
10705;SDS011;5404;42.656;23.336;2023-08-31T02:26:37;5.00;;;2.53;;
10705;SDS011;5404;42.656;23.336;2023-08-31T02:29:02;11.23;;;2.63;;
10705;SDS011;5404;42.656;23.336;2023-08-31T02:31:28;15.00;;;2.47;;
10705;SDS011;5404;42.656;23.336;2023-08-31T02:33:53;7.10;;;2.60;;
10705;SDS011;5404;42.656;23.336;2023-08-31T02:36:19;14.18;;;2.78;;
10705;SDS011;5404;42.656;23.336;2023-08-31T02:38:45;8.13;;;3.33;;
10705;SDS011;5404;42.656;23.336;2023-08-31T02:41:11;7.63;;;2.55;;
10705;SDS011;5404;42.656;23.336;2023-08-31T02:43:37;7.90;;;3.13;;
10705;SDS011;5404;42.656;23.336;2023-08-31T02:46:02;5.85;;;2.47;;
10705;SDS011;5404;42.656;23.336;2023-08-31T02:48:28;9.73;;;3.25;;
10705;SDS011;5404;42.656;23.336;2023-08-31T02:50:56;10.18;;;2.90;;
10705;SDS011;5404;42.656;23.336;2023-08-31T02:53:23;9.27;;;3.22;;
10705;SDS011;5404;42.656;23.336;2023-08-31T02:55:48;8.43;;;2.78;;
10705;SDS011;5404;42.656;23.336;2023-08-31T02:58:15;8.70;;;2.80;;
10705;SDS011;5404;42.656;23.336;2023-08-31T03:00:41;11.88;;;3.67;;
10705;SDS011;5404;42.656;23.336;2023-08-31T03:03:07;13.82;;;2.72;;
10705;SDS011;5404;42.656;23.336;2023-08-31T03:05:33;9.90;;;3.13;;
10705;SDS011;5404;42.656;23.336;2023-08-31T03:07:59;10.55;;;2.80;;
10705;SDS011;5404;42.656;23.336;2023-08-31T03:10:25;14.10;;;3.75;;
10705;SDS011;5404;42.656;23.336;2023-08-31T03:12:50;21.70;;;3.17;;
10705;SDS011;5404;42.656;23.336;2023-08-31T03:15:15;15.55;;;3.50;;
10705;SDS011;5404;42.656;23.336;2023-08-31T03:17:41;12.18;;;3.10;;
10705;SDS011;5404;42.656;23.336;2023-08-31T03:20:06;11.52;;;3.28;;
10705;SDS011;5404;42.656;23.336;2023-08-31T03:22:32;6.68;;;3.17;;
10705;SDS011;5404;42.656;23.336;2023-08-31T03:24:58;6.72;;;2.65;;
10705;SDS011;5404;42.656;23.336;2023-08-31T03:27:24;10.05;;;2.97;;
10705;SDS011;5404;42.656;23.336;2023-08-31T03:29:50;17.35;;;3.65;;
10705;SDS011;5404;42.656;23.336;2023-08-31T03:32:15;13.15;;;2.67;;
10705;SDS011;5404;42.656;23.336;2023-08-31T03:34:40;5.97;;;2.85;;
10705;SDS011;5404;42.656;23.336;2023-08-31T03:37:06;9.23;;;3.50;;
10705;SDS011;5404;42.656;23.336;2023-08-31T03:39:31;21.08;;;3.72;;
10705;SDS011;5404;42.656;23.336;2023-08-31T03:41:57;10.82;;;3.50;;
10705;SDS011;5404;42.656;23.336;2023-08-31T03:44:22;11.45;;;3.30;;
10705;SDS011;5404;42.656;23.336;2023-08-31T03:46:48;18.45;;;4.07;;
10705;SDS011;5404;42.656;23.336;2023-08-31T03:49:14;17.23;;;3.97;;
10705;SDS011;5404;42.656;23.336;2023-08-31T03:51:39;14.75;;;3.85;;
10705;SDS011;5404;42.656;23.336;2023-08-31T03:54:04;18.98;;;3.85;;
10705;SDS011;5404;42.656;23.336;2023-08-31T03:56:30;16.10;;;3.88;;
10705;SDS011;5404;42.656;23.336;2023-08-31T03:58:55;14.90;;;2.80;;
10705;SDS011;5404;42.656;23.336;2023-08-31T04:01:21;18.90;;;3.80;;
10705;SDS011;5404;42.656;23.336;2023-08-31T04:03:46;15.38;;;4.35;;
10705;SDS011;5404;42.656;23.336;2023-08-31T04:06:12;11.02;;;4.28;;
10705;SDS011;5404;42.656;23.336;2023-08-31T04:08:37;10.50;;;4.05;;
10705;SDS011;5404;42.656;23.336;2023-08-31T04:11:02;12.77;;;4.45;;
10705;SDS011;5404;42.656;23.336;2023-08-31T04:13:28;17.40;;;3.72;;
10705;SDS011;5404;42.656;23.336;2023-08-31T04:15:53;22.13;;;4.07;;
10705;SDS011;5404;42.656;23.336;2023-08-31T04:18:19;15.70;;;4.32;;
10705;SDS011;5404;42.656;23.336;2023-08-31T04:20:49;13.77;;;4.55;;
10705;SDS011;5404;42.656;23.336;2023-08-31T04:23:18;14.68;;;3.92;;
10705;SDS011;5404;42.656;23.336;2023-08-31T04:25:45;11.98;;;3.67;;
10705;SDS011;5404;42.656;23.336;2023-08-31T04:28:11;7.43;;;4.05;;
10705;SDS011;5404;42.656;23.336;2023-08-31T04:30:36;14.35;;;4.70;;
10705;SDS011;5404;42.656;23.336;2023-08-31T04:33:02;12.73;;;3.53;;
10705;SDS011;5404;42.656;23.336;2023-08-31T04:35:29;12.32;;;3.55;;
10705;SDS011;5404;42.656;23.336;2023-08-31T04:37:56;17.08;;;5.13;;
10705;SDS011;5404;42.656;23.336;2023-08-31T04:40:22;8.07;;;3.83;;
10705;SDS011;5404;42.656;23.336;2023-08-31T04:42:47;11.05;;;3.65;;
10705;SDS011;5404;42.656;23.336;2023-08-31T04:45:13;10.15;;;3.95;;
10705;SDS011;5404;42.656;23.336;2023-08-31T04:47:38;16.40;;;4.32;;
10705;SDS011;5404;42.656;23.336;2023-08-31T04:50:04;13.52;;;3.95;;
10705;SDS011;5404;42.656;23.336;2023-08-31T04:52:31;17.67;;;3.83;;
10705;SDS011;5404;42.656;23.336;2023-08-31T04:54:57;16.27;;;3.53;;
10705;SDS011;5404;42.656;23.336;2023-08-31T04:57:22;18.40;;;4.18;;
10705;SDS011;5404;42.656;23.336;2023-08-31T04:59:49;20.95;;;4.35;;
10705;SDS011;5404;42.656;23.336;2023-08-31T05:02:14;18.88;;;3.65;;
10705;SDS011;5404;42.656;23.336;2023-08-31T05:04:40;21.67;;;5.03;;
10705;SDS011;5404;42.656;23.336;2023-08-31T05:07:05;16.02;;;4.13;;
10705;SDS011;5404;42.656;23.336;2023-08-31T05:09:31;14.10;;;4.03;;
10705;SDS011;5404;42.656;23.336;2023-08-31T05:11:59;15.00;;;3.85;;
10705;SDS011;5404;42.656;23.336;2023-08-31T05:16:54;19.27;;;5.90;;
10705;SDS011;5404;42.656;23.336;2023-08-31T05:19:19;11.73;;;4.20;;
10705;SDS011;5404;42.656;23.336;2023-08-31T05:21:45;15.68;;;4.10;;
10705;SDS011;5404;42.656;23.336;2023-08-31T05:24:10;22.02;;;3.67;;
10705;SDS011;5404;42.656;23.336;2023-08-31T05:26:36;18.83;;;4.25;;
10705;SDS011;5404;42.656;23.336;2023-08-31T05:29:01;17.85;;;3.72;;
10705;SDS011;5404;42.656;23.336;2023-08-31T05:31:29;21.65;;;4.72;;
10705;SDS011;5404;42.656;23.336;2023-08-31T05:33:54;28.85;;;4.75;;
10705;SDS011;5404;42.656;23.336;2023-08-31T05:36:20;16.10;;;3.70;;
10705;SDS011;5404;42.656;23.336;2023-08-31T05:38:45;19.65;;;4.10;;
10705;SDS011;5404;42.656;23.336;2023-08-31T05:41:11;15.50;;;3.65;;
10705;SDS011;5404;42.656;23.336;2023-08-31T05:43:37;14.88;;;3.95;;
10705;SDS011;5404;42.656;23.336;2023-08-31T05:48:32;10.77;;;2.70;;
10705;SDS011;5404;42.656;23.336;2023-08-31T05:50:57;17.02;;;2.78;;
10705;SDS011;5404;42.656;23.336;2023-08-31T05:53:23;20.13;;;3.70;;
10705;SDS011;5404;42.656;23.336;2023-08-31T05:55:48;9.75;;;2.85;;
10705;SDS011;5404;42.656;23.336;2023-08-31T05:58:13;9.23;;;3.00;;
10705;SDS011;5404;42.656;23.336;2023-08-31T06:00:39;19.33;;;2.97;;
10705;SDS011;5404;42.656;23.336;2023-08-31T06:03:04;19.75;;;2.97;;
10705;SDS011;5404;42.656;23.336;2023-08-31T06:05:31;10.70;;;2.90;;
10705;SDS011;5404;42.656;23.336;2023-08-31T06:07:57;20.70;;;3.55;;
10705;SDS011;5404;42.656;23.336;2023-08-31T06:10:23;12.25;;;3.30;;
10705;SDS011;5404;42.656;23.336;2023-08-31T06:12:49;8.77;;;3.10;;
10705;SDS011;5404;42.656;23.336;2023-08-31T06:15:15;9.00;;;2.78;;
10705;SDS011;5404;42.656;23.336;2023-08-31T06:17:44;10.10;;;3.00;;
10705;SDS011;5404;42.656;23.336;2023-08-31T06:20:09;17.80;;;3.33;;
10705;SDS011;5404;42.656;23.336;2023-08-31T06:22:35;10.02;;;3.40;;
10705;SDS011;5404;42.656;23.336;2023-08-31T06:25:01;13.93;;;2.92;;
10705;SDS011;5404;42.656;23.336;2023-08-31T06:27:29;12.40;;;2.72;;
10705;SDS011;5404;42.656;23.336;2023-08-31T06:29:54;6.85;;;3.20;;
10705;SDS011;5404;42.656;23.336;2023-08-31T06:32:21;9.23;;;2.88;;
10705;SDS011;5404;42.656;23.336;2023-08-31T06:34:46;9.02;;;2.70;;
10705;SDS011;5404;42.656;23.336;2023-08-31T06:37:12;9.40;;;2.60;;
10705;SDS011;5404;42.656;23.336;2023-08-31T06:39:38;13.88;;;2.90;;
10705;SDS011;5404;42.656;23.336;2023-08-31T06:42:04;8.50;;;3.42;;
10705;SDS011;5404;42.656;23.336;2023-08-31T06:44:30;11.65;;;2.92;;
10705;SDS011;5404;42.656;23.336;2023-08-31T06:46:55;11.68;;;3.03;;
10705;SDS011;5404;42.656;23.336;2023-08-31T06:49:24;13.10;;;2.65;;
10705;SDS011;5404;42.656;23.336;2023-08-31T06:51:49;15.43;;;3.22;;
10705;SDS011;5404;42.656;23.336;2023-08-31T06:54:15;8.07;;;3.25;;
10705;SDS011;5404;42.656;23.336;2023-08-31T06:56:40;16.20;;;3.47;;
10705;SDS011;5404;42.656;23.336;2023-08-31T06:59:06;12.90;;;2.88;;
10705;SDS011;5404;42.656;23.336;2023-08-31T07:01:31;8.75;;;3.45;;
10705;SDS011;5404;42.656;23.336;2023-08-31T07:04:00;7.07;;;3.30;;
10705;SDS011;5404;42.656;23.336;2023-08-31T07:06:25;15.27;;;3.40;;
10705;SDS011;5404;42.656;23.336;2023-08-31T07:08:50;9.25;;;3.90;;
10705;SDS011;5404;42.656;23.336;2023-08-31T07:11:17;7.50;;;3.70;;
10705;SDS011;5404;42.656;23.336;2023-08-31T07:13:43;16.15;;;3.63;;
10705;SDS011;5404;42.656;23.336;2023-08-31T07:16:08;10.75;;;3.88;;
10705;SDS011;5404;42.656;23.336;2023-08-31T07:18:34;10.75;;;4.10;;
10705;SDS011;5404;42.656;23.336;2023-08-31T07:21:00;14.75;;;4.63;;
10705;SDS011;5404;42.656;23.336;2023-08-31T07:23:26;16.55;;;3.90;;
10705;SDS011;5404;42.656;23.336;2023-08-31T07:25:51;18.63;;;4.03;;
10705;SDS011;5404;42.656;23.336;2023-08-31T07:28:17;10.02;;;3.47;;
10705;SDS011;5404;42.656;23.336;2023-08-31T07:30:42;10.15;;;3.85;;
10705;SDS011;5404;42.656;23.336;2023-08-31T07:33:08;17.95;;;4.45;;
10705;SDS011;5404;42.656;23.336;2023-08-31T07:35:34;20.88;;;3.97;;
10705;SDS011;5404;42.656;23.336;2023-08-31T07:37:59;20.35;;;4.25;;
10705;SDS011;5404;42.656;23.336;2023-08-31T07:40:25;13.70;;;2.67;;
10705;SDS011;5404;42.656;23.336;2023-08-31T07:42:50;9.70;;;3.53;;
10705;SDS011;5404;42.656;23.336;2023-08-31T07:45:16;7.88;;;3.22;;
10705;SDS011;5404;42.656;23.336;2023-08-31T07:47:42;32.67;;;4.68;;
10705;SDS011;5404;42.656;23.336;2023-08-31T07:50:08;9.25;;;2.78;;
10705;SDS011;5404;42.656;23.336;2023-08-31T07:52:34;9.60;;;3.15;;
10705;SDS011;5404;42.656;23.336;2023-08-31T07:55:00;17.85;;;3.50;;
10705;SDS011;5404;42.656;23.336;2023-08-31T07:57:25;6.15;;;2.58;;
10705;SDS011;5404;42.656;23.336;2023-08-31T07:59:51;10.15;;;2.95;;
10705;SDS011;5404;42.656;23.336;2023-08-31T08:02:16;13.50;;;2.72;;
10705;SDS011;5404;42.656;23.336;2023-08-31T08:04:42;12.38;;;2.60;;
10705;SDS011;5404;42.656;23.336;2023-08-31T08:07:07;8.25;;;2.58;;
10705;SDS011;5404;42.656;23.336;2023-08-31T08:09:34;13.50;;;2.80;;
10705;SDS011;5404;42.656;23.336;2023-08-31T08:12:00;15.88;;;2.53;;
10705;SDS011;5404;42.656;23.336;2023-08-31T08:14:25;7.38;;;2.78;;
10705;SDS011;5404;42.656;23.336;2023-08-31T08:16:51;16.50;;;3.50;;
10705;SDS011;5404;42.656;23.336;2023-08-31T08:19:21;16.73;;;4.57;;
10705;SDS011;5404;42.656;23.336;2023-08-31T08:21:47;23.13;;;5.75;;
10705;SDS011;5404;42.656;23.336;2023-08-31T08:24:13;15.23;;;6.05;;
10705;SDS011;5404;42.656;23.336;2023-08-31T08:26:38;22.00;;;6.95;;
10705;SDS011;5404;42.656;23.336;2023-08-31T08:29:03;15.82;;;5.85;;
10705;SDS011;5404;42.656;23.336;2023-08-31T08:31:29;13.88;;;5.97;;
10705;SDS011;5404;42.656;23.336;2023-08-31T08:33:54;13.30;;;5.75;;
10705;SDS011;5404;42.656;23.336;2023-08-31T08:36:20;8.88;;;4.97;;
10705;SDS011;5404;42.656;23.336;2023-08-31T08:38:45;11.77;;;4.70;;
10705;SDS011;5404;42.656;23.336;2023-08-31T08:41:10;13.27;;;5.38;;
10705;SDS011;5404;42.656;23.336;2023-08-31T08:43:36;20.02;;;5.80;;
10705;SDS011;5404;42.656;23.336;2023-08-31T08:46:05;13.03;;;4.50;;
10705;SDS011;5404;42.656;23.336;2023-08-31T08:48:32;13.13;;;4.80;;
10705;SDS011;5404;42.656;23.336;2023-08-31T08:51:00;15.00;;;5.15;;
10705;SDS011;5404;42.656;23.336;2023-08-31T08:53:27;25.17;;;5.55;;
10705;SDS011;5404;42.656;23.336;2023-08-31T08:55:53;13.88;;;6.00;;
10705;SDS011;5404;42.656;23.336;2023-08-31T08:58:18;28.52;;;6.05;;
10705;SDS011;5404;42.656;23.336;2023-08-31T09:00:44;9.18;;;4.40;;
10705;SDS011;5404;42.656;23.336;2023-08-31T09:03:10;10.23;;;4.35;;
10705;SDS011;5404;42.656;23.336;2023-08-31T09:05:36;7.95;;;4.75;;
10705;SDS011;5404;42.656;23.336;2023-08-31T09:10:37;12.77;;;5.38;;
10705;SDS011;5404;42.656;23.336;2023-08-31T09:13:05;9.00;;;4.38;;
10705;SDS011;5404;42.656;23.336;2023-08-31T09:18:05;8.30;;;4.55;;
10705;SDS011;5404;42.656;23.336;2023-08-31T09:20:30;9.65;;;4.45;;
10705;SDS011;5404;42.656;23.336;2023-08-31T09:22:56;13.75;;;4.95;;
10705;SDS011;5404;42.656;23.336;2023-08-31T09:25:21;10.07;;;4.78;;
10705;SDS011;5404;42.656;23.336;2023-08-31T09:27:47;8.95;;;4.75;;
10705;SDS011;5404;42.656;23.336;2023-08-31T09:30:13;11.60;;;4.55;;
10705;SDS011;5404;42.656;23.336;2023-08-31T09:32:41;16.20;;;5.25;;
10705;SDS011;5404;42.656;23.336;2023-08-31T09:35:09;15.35;;;5.20;;
10705;SDS011;5404;42.656;23.336;2023-08-31T09:37:34;11.57;;;4.80;;
10705;SDS011;5404;42.656;23.336;2023-08-31T09:40:03;9.18;;;4.93;;
10705;SDS011;5404;42.656;23.336;2023-08-31T09:42:37;10.55;;;4.75;;
10705;SDS011;5404;42.656;23.336;2023-08-31T09:45:03;9.63;;;4.90;;
10705;SDS011;5404;42.656;23.336;2023-08-31T09:47:29;8.80;;;5.13;;
10705;SDS011;5404;42.656;23.336;2023-08-31T09:49:56;6.45;;;3.83;;
10705;SDS011;5404;42.656;23.336;2023-08-31T09:52:23;8.93;;;4.50;;
10705;SDS011;5404;42.656;23.336;2023-08-31T09:54:49;10.38;;;5.15;;
10705;SDS011;5404;42.656;23.336;2023-08-31T09:57:18;13.73;;;5.30;;
10705;SDS011;5404;42.656;23.336;2023-08-31T09:59:45;11.65;;;4.80;;
10705;SDS011;5404;42.656;23.336;2023-08-31T10:02:11;23.10;;;5.50;;
10705;SDS011;5404;42.656;23.336;2023-08-31T10:04:38;10.63;;;4.43;;
10705;SDS011;5404;42.656;23.336;2023-08-31T10:07:04;11.07;;;4.35;;
10705;SDS011;5404;42.656;23.336;2023-08-31T10:09:31;12.02;;;5.28;;
10705;SDS011;5404;42.656;23.336;2023-08-31T10:11:57;10.00;;;5.05;;
10705;SDS011;5404;42.656;23.336;2023-08-31T10:14:23;11.32;;;5.43;;
10705;SDS011;5404;42.656;23.336;2023-08-31T10:16:49;13.13;;;4.45;;
10705;SDS011;5404;42.656;23.336;2023-08-31T10:19:17;8.27;;;5.05;;
10705;SDS011;5404;42.656;23.336;2023-08-31T10:21:43;10.02;;;5.30;;
10705;SDS011;5404;42.656;23.336;2023-08-31T10:24:09;11.77;;;5.90;;
10705;SDS011;5404;42.656;23.336;2023-08-31T10:26:35;14.95;;;5.88;;
10705;SDS011;5404;42.656;23.336;2023-08-31T10:29:00;11.27;;;4.97;;
10705;SDS011;5404;42.656;23.336;2023-08-31T10:31:31;13.93;;;4.95;;
10705;SDS011;5404;42.656;23.336;2023-08-31T10:34:02;10.38;;;4.38;;
10705;SDS011;5404;42.656;23.336;2023-08-31T10:36:39;12.52;;;5.10;;
10705;SDS011;5404;42.656;23.336;2023-08-31T10:39:13;10.00;;;5.00;;
10705;SDS011;5404;42.656;23.336;2023-08-31T10:41:54;10.88;;;5.65;;
10705;SDS011;5404;42.656;23.336;2023-08-31T10:44:21;45.33;;;7.32;;
10705;SDS011;5404;42.656;23.336;2023-08-31T10:46:49;20.55;;;9.07;;
10705;SDS011;5404;42.656;23.336;2023-08-31T10:49:16;24.73;;;7.90;;
10705;SDS011;5404;42.656;23.336;2023-08-31T10:51:44;16.67;;;10.33;;
10705;SDS011;5404;42.656;23.336;2023-08-31T10:54:31;32.88;;;16.10;;
10705;SDS011;5404;42.656;23.336;2023-08-31T10:59:25;23.92;;;8.80;;
10705;SDS011;5404;42.656;23.336;2023-08-31T11:01:58;19.95;;;8.80;;
10705;SDS011;5404;42.656;23.336;2023-08-31T11:04:29;15.70;;;6.43;;
10705;SDS011;5404;42.656;23.336;2023-08-31T11:07:14;15.07;;;7.75;;
10705;SDS011;5404;42.656;23.336;2023-08-31T11:09:40;13.60;;;5.43;;
10705;SDS011;5404;42.656;23.336;2023-08-31T11:12:06;14.52;;;7.85;;
10705;SDS011;5404;42.656;23.336;2023-08-31T11:14:32;13.65;;;5.53;;
10705;SDS011;5404;42.656;23.336;2023-08-31T11:16:58;16.17;;;5.68;;
10705;SDS011;5404;42.656;23.336;2023-08-31T11:19:25;20.05;;;7.10;;
10705;SDS011;5404;42.656;23.336;2023-08-31T11:21:52;20.23;;;5.40;;
10705;SDS011;5404;42.656;23.336;2023-08-31T11:24:19;22.48;;;7.97;;
10705;SDS011;5404;42.656;23.336;2023-08-31T11:26:47;17.55;;;5.25;;
10705;SDS011;5404;42.656;23.336;2023-08-31T11:29:15;23.77;;;6.35;;
10705;SDS011;5404;42.656;23.336;2023-08-31T11:31:40;19.63;;;4.80;;
10705;SDS011;5404;42.656;23.336;2023-08-31T11:34:06;13.55;;;4.60;;
10705;SDS011;5404;42.656;23.336;2023-08-31T11:36:36;33.05;;;5.45;;
10705;SDS011;5404;42.656;23.336;2023-08-31T11:39:02;12.13;;;5.13;;
10705;SDS011;5404;42.656;23.336;2023-08-31T11:41:32;21.00;;;5.38;;
10705;SDS011;5404;42.656;23.336;2023-08-31T11:43:58;15.05;;;4.38;;
10705;SDS011;5404;42.656;23.336;2023-08-31T11:46:24;17.45;;;4.47;;
10705;SDS011;5404;42.656;23.336;2023-08-31T11:48:50;10.18;;;4.57;;
10705;SDS011;5404;42.656;23.336;2023-08-31T11:51:16;13.68;;;3.95;;
10705;SDS011;5404;42.656;23.336;2023-08-31T11:53:44;8.02;;;4.03;;
10705;SDS011;5404;42.656;23.336;2023-08-31T11:56:09;11.65;;;4.03;;
10705;SDS011;5404;42.656;23.336;2023-08-31T11:58:40;11.60;;;3.88;;
10705;SDS011;5404;42.656;23.336;2023-08-31T12:01:07;14.23;;;4.90;;
10705;SDS011;5404;42.656;23.336;2023-08-31T12:03:42;17.35;;;4.30;;
10705;SDS011;5404;42.656;23.336;2023-08-31T12:08:40;17.50;;;3.75;;
10705;SDS011;5404;42.656;23.336;2023-08-31T12:11:06;9.18;;;3.65;;
10705;SDS011;5404;42.656;23.336;2023-08-31T12:13:32;36.33;;;6.05;;
10705;SDS011;5404;42.656;23.336;2023-08-31T12:15:58;13.57;;;3.80;;
10705;SDS011;5404;42.656;23.336;2023-08-31T12:18:23;12.48;;;5.25;;
10705;SDS011;5404;42.656;23.336;2023-08-31T12:20:52;11.02;;;3.70;;
10705;SDS011;5404;42.656;23.336;2023-08-31T12:25:52;10.55;;;4.07;;
10705;SDS011;5404;42.656;23.336;2023-08-31T12:28:19;12.45;;;4.18;;
10705;SDS011;5404;42.656;23.336;2023-08-31T12:30:50;9.57;;;3.67;;
10705;SDS011;5404;42.656;23.336;2023-08-31T12:33:17;12.70;;;4.00;;
10705;SDS011;5404;42.656;23.336;2023-08-31T12:35:43;29.83;;;5.60;;
10705;SDS011;5404;42.656;23.336;2023-08-31T12:38:09;15.77;;;4.05;;
10705;SDS011;5404;42.656;23.336;2023-08-31T12:40:35;17.90;;;4.28;;
10705;SDS011;5404;42.656;23.336;2023-08-31T12:43:01;11.88;;;3.63;;
10705;SDS011;5404;42.656;23.336;2023-08-31T12:45:27;9.85;;;4.05;;
10705;SDS011;5404;42.656;23.336;2023-08-31T12:47:52;27.00;;;4.30;;
10705;SDS011;5404;42.656;23.336;2023-08-31T12:50:18;12.70;;;3.20;;
10705;SDS011;5404;42.656;23.336;2023-08-31T12:52:44;47.13;;;6.10;;
10705;SDS011;5404;42.656;23.336;2023-08-31T12:55:11;8.93;;;3.60;;
10705;SDS011;5404;42.656;23.336;2023-08-31T12:57:37;7.90;;;3.97;;
10705;SDS011;5404;42.656;23.336;2023-08-31T13:00:03;17.77;;;4.15;;
10705;SDS011;5404;42.656;23.336;2023-08-31T13:02:34;8.90;;;3.63;;
10705;SDS011;5404;42.656;23.336;2023-08-31T13:04:59;10.75;;;3.38;;
10705;SDS011;5404;42.656;23.336;2023-08-31T13:07:25;16.13;;;4.22;;
10705;SDS011;5404;42.656;23.336;2023-08-31T13:09:50;22.80;;;5.60;;
10705;SDS011;5404;42.656;23.336;2023-08-31T13:12:16;12.65;;;3.97;;
10705;SDS011;5404;42.656;23.336;2023-08-31T13:14:43;22.58;;;4.45;;
10705;SDS011;5404;42.656;23.336;2023-08-31T13:17:09;12.82;;;4.18;;
10705;SDS011;5404;42.656;23.336;2023-08-31T13:19:34;14.77;;;4.38;;
10705;SDS011;5404;42.656;23.336;2023-08-31T13:22:00;11.60;;;3.65;;
10705;SDS011;5404;42.656;23.336;2023-08-31T13:24:25;14.63;;;4.03;;
10705;SDS011;5404;42.656;23.336;2023-08-31T13:26:51;20.70;;;5.00;;
10705;SDS011;5404;42.656;23.336;2023-08-31T13:29:16;7.75;;;3.03;;
10705;SDS011;5404;42.656;23.336;2023-08-31T13:31:42;34.78;;;5.63;;
10705;SDS011;5404;42.656;23.336;2023-08-31T13:34:07;17.05;;;4.22;;
10705;SDS011;5404;42.656;23.336;2023-08-31T13:36:33;12.15;;;3.22;;
10705;SDS011;5404;42.656;23.336;2023-08-31T13:38:59;15.30;;;3.40;;
10705;SDS011;5404;42.656;23.336;2023-08-31T13:41:24;11.00;;;3.65;;
10705;SDS011;5404;42.656;23.336;2023-08-31T13:43:50;6.05;;;2.78;;
10705;SDS011;5404;42.656;23.336;2023-08-31T13:46:17;12.15;;;2.80;;
10705;SDS011;5404;42.656;23.336;2023-08-31T13:48:42;24.02;;;4.00;;
10705;SDS011;5404;42.656;23.336;2023-08-31T13:51:09;28.08;;;4.30;;
10705;SDS011;5404;42.656;23.336;2023-08-31T13:53:35;30.30;;;5.88;;
10705;SDS011;5404;42.656;23.336;2023-08-31T13:56:00;13.82;;;4.05;;
10705;SDS011;5404;42.656;23.336;2023-08-31T13:58:26;28.60;;;4.18;;
10705;SDS011;5404;42.656;23.336;2023-08-31T14:00:52;9.63;;;4.15;;
10705;SDS011;5404;42.656;23.336;2023-08-31T14:03:18;8.15;;;3.47;;
10705;SDS011;5404;42.656;23.336;2023-08-31T14:05:47;13.75;;;4.03;;
10705;SDS011;5404;42.656;23.336;2023-08-31T14:08:13;22.75;;;4.18;;
10705;SDS011;5404;42.656;23.336;2023-08-31T14:10:39;12.10;;;4.00;;
10705;SDS011;5404;42.656;23.336;2023-08-31T14:13:05;15.40;;;4.30;;
10705;SDS011;5404;42.656;23.336;2023-08-31T14:15:30;11.48;;;3.28;;
10705;SDS011;5404;42.656;23.336;2023-08-31T14:17:56;8.57;;;3.35;;
10705;SDS011;5404;42.656;23.336;2023-08-31T14:20:21;11.90;;;3.80;;
10705;SDS011;5404;42.656;23.336;2023-08-31T14:22:47;17.52;;;4.05;;
10705;SDS011;5404;42.656;23.336;2023-08-31T14:25:13;9.38;;;3.78;;
10705;SDS011;5404;42.656;23.336;2023-08-31T14:27:39;13.40;;;3.65;;
10705;SDS011;5404;42.656;23.336;2023-08-31T14:30:05;19.15;;;4.18;;
10705;SDS011;5404;42.656;23.336;2023-08-31T14:32:31;52.00;;;7.78;;
10705;SDS011;5404;42.656;23.336;2023-08-31T14:34:57;10.18;;;3.72;;
10705;SDS011;5404;42.656;23.336;2023-08-31T14:37:22;6.95;;;3.13;;
10705;SDS011;5404;42.656;23.336;2023-08-31T14:39:48;6.35;;;3.47;;
10705;SDS011;5404;42.656;23.336;2023-08-31T14:42:14;16.63;;;3.78;;
10705;SDS011;5404;42.656;23.336;2023-08-31T14:44:41;7.97;;;3.53;;
10705;SDS011;5404;42.656;23.336;2023-08-31T14:47:07;13.20;;;3.95;;
10705;SDS011;5404;42.656;23.336;2023-08-31T14:49:32;13.57;;;4.07;;
10705;SDS011;5404;42.656;23.336;2023-08-31T14:51:58;10.52;;;3.97;;
10705;SDS011;5404;42.656;23.336;2023-08-31T14:54:29;9.60;;;3.80;;
10705;SDS011;5404;42.656;23.336;2023-08-31T14:56:55;12.43;;;3.95;;
10705;SDS011;5404;42.656;23.336;2023-08-31T14:59:20;9.52;;;3.35;;
10705;SDS011;5404;42.656;23.336;2023-08-31T15:01:46;12.23;;;3.67;;
10705;SDS011;5404;42.656;23.336;2023-08-31T15:04:11;7.93;;;3.30;;
10705;SDS011;5404;42.656;23.336;2023-08-31T15:06:37;14.30;;;3.13;;